Time;durP1;ratioP1;P1;durP2;ratioP2;P2;SDS_P1;SDS_P2;PMS_P1;PMS_P2;Temp;Humidity;BMP_temperature;BMP_pressure;BME280_temperature;BME280_humidity;BME280_pressure;Samples;Min_cycle;Max_cycle;Signal;HPM_P1;HPM_P2
2023/07/14 00:00:20;;;;;;;5.53;2.20;;;14.90;99.90;;;;;;4997004;28;20076;-64
2023/07/14 00:02:48;;;;;;;7.53;2.38;;;14.90;99.90;;;;;;5014755;28;20182;-64
2023/07/14 00:05:17;;;;;;;6.07;2.25;;;14.90;99.90;;;;;;5013692;28;20026;-65
2023/07/14 00:07:44;;;;;;;6.07;1.92;;;15.00;99.90;;;;;;5014610;28;20110;-64
2023/07/14 00:10:34;;;;;;;4.32;2.83;;;15.10;99.90;;;;;;5014674;28;20022;-64
2023/07/14 00:13:07;;;;;;;6.10;2.28;;;15.20;99.90;;;;;;5014328;28;20073;-65
2023/07/14 00:15:39;;;;;;;4.18;2.03;;;15.40;99.90;;;;;;5014559;28;20022;-64
2023/07/14 00:18:23;;;;;;;9.65;3.45;;;15.40;99.90;;;;;;5014397;28;20021;-64
2023/07/14 00:20:48;;;;;;;6.53;2.05;;;15.50;99.90;;;;;;5014556;28;20387;-65
2023/07/14 00:23:15;;;;;;;6.07;2.63;;;15.60;99.90;;;;;;5014564;28;20031;-64
2023/07/14 00:25:41;;;;;;;7.13;2.20;;;15.60;99.90;;;;;;5014462;28;20030;-64
2023/07/14 00:28:19;;;;;;;7.82;2.15;;;15.70;99.90;;;;;;4996356;28;20037;-64
2023/07/14 00:30:46;;;;;;;5.72;2.17;;;15.70;99.90;;;;;;5014062;28;20034;-64
2023/07/14 00:33:14;;;;;;;3.72;2.17;;;15.70;99.90;;;;;;5014399;28;20080;-65
2023/07/14 00:35:40;;;;;;;5.63;2.30;;;15.70;99.90;;;;;;5014295;28;20072;-64
2023/07/14 00:38:06;;;;;;;5.25;2.58;;;15.70;99.90;;;;;;5013957;28;20036;-65
2023/07/14 00:40:37;;;;;;;6.82;2.00;;;15.80;99.90;;;;;;5014133;28;20527;-65
2023/07/14 00:43:12;;;;;;;7.68;1.75;;;15.80;99.90;;;;;;5014157;28;20129;-65
2023/07/14 00:45:38;;;;;;;4.78;2.60;;;15.80;99.90;;;;;;5014070;28;20391;-65
2023/07/14 00:48:04;;;;;;;7.35;2.20;;;15.70;99.90;;;;;;5013890;28;20022;-65
2023/07/14 00:50:52;;;;;;;4.13;2.13;;;15.60;99.90;;;;;;5013968;28;20058;-65
2023/07/14 00:53:20;;;;;;;4.82;2.25;;;15.50;99.90;;;;;;5013960;28;20388;-65
2023/07/14 00:56:07;;;;;;;3.22;2.05;;;15.50;99.90;;;;;;5013620;28;20034;-65
2023/07/14 00:58:34;;;;;;;5.50;1.73;;;15.40;99.90;;;;;;5013317;28;20025;-65
2023/07/14 01:01:13;;;;;;;7.93;2.50;;;15.40;99.90;;;;;;5013760;28;20487;-65
2023/07/14 01:03:41;;;;;;;6.13;2.35;;;15.40;99.90;;;;;;5013829;28;20026;-65
2023/07/14 01:06:21;;;;;;;6.32;2.00;;;15.50;99.90;;;;;;5013637;28;20490;-64
2023/07/14 01:09:08;;;;;;;6.57;2.05;;;15.50;99.90;;;;;;5013575;28;20510;-64
2023/07/14 01:11:33;;;;;;;4.95;1.98;;;15.50;99.90;;;;;;4995986;28;20029;-64
2023/07/14 01:14:03;;;;;;;7.80;1.98;;;15.60;99.90;;;;;;5013555;28;20029;-64
2023/07/14 01:16:31;;;;;;;7.53;2.88;;;15.60;99.90;;;;;;5013388;28;20030;-64
2023/07/14 01:18:58;;;;;;;4.43;1.73;;;15.70;99.90;;;;;;5013210;28;20076;-64
2023/07/14 01:21:25;;;;;;;6.97;2.00;;;15.70;99.90;;;;;;5013307;28;20037;-64
2023/07/14 01:24:13;;;;;;;7.93;2.50;;;15.70;99.90;;;;;;5013339;28;20479;-64
2023/07/14 01:26:52;;;;;;;5.80;1.90;;;15.70;99.90;;;;;;5013683;28;20026;-64
2023/07/14 01:29:20;;;;;;;8.52;2.15;;;15.60;99.90;;;;;;5012896;28;20026;-64
2023/07/14 01:31:47;;;;;;;3.20;1.85;;;15.60;99.90;;;;;;5033442;23;20042;-64
2023/07/14 01:34:13;;;;;;;5.15;2.58;;;15.50;99.90;;;;;;5013126;28;20017;-66
2023/07/14 01:36:39;;;;;;;4.85;2.00;;;15.50;99.90;;;;;;5012996;28;20428;-66
2023/07/14 01:39:05;;;;;;;5.80;2.20;;;15.60;99.90;;;;;;5012823;28;20026;-65
2023/07/14 01:41:32;;;;;;;2.53;1.67;;;15.60;99.90;;;;;;5027108;28;20026;-66
2023/07/14 01:44:03;;;;;;;6.07;2.30;;;15.60;99.90;;;;;;5015127;28;20029;-65
2023/07/14 01:46:28;;;;;;;5.10;2.17;;;15.50;99.90;;;;;;5032716;28;20022;-67
2023/07/14 01:48:57;;;;;;;7.78;2.30;;;15.50;99.90;;;;;;5032557;28;20025;-66
2023/07/14 01:51:24;;;;;;;6.05;1.75;;;15.50;99.90;;;;;;5032732;28;20401;-65
2023/07/14 01:54:05;;;;;;;5.70;1.90;;;15.50;99.90;;;;;;5032734;28;20076;-65
2023/07/14 01:56:32;;;;;;;6.05;2.05;;;15.50;99.90;;;;;;5014878;28;20126;-65
2023/07/14 01:59:18;;;;;;;5.75;2.20;;;15.60;99.90;;;;;;5014668;28;20032;-65
2023/07/14 02:01:45;;;;;;;6.75;2.05;;;15.60;99.90;;;;;;5032555;28;20104;-65
2023/07/14 02:04:25;;;;;;;7.18;1.95;;;15.60;99.90;;;;;;5032498;28;20508;-66
2023/07/14 02:06:51;;;;;;;5.00;1.98;;;15.60;99.90;;;;;;5014669;28;20406;-65
2023/07/14 02:09:21;;;;;;;4.65;1.80;;;15.60;99.90;;;;;;5032069;28;20545;-65
2023/07/14 02:11:56;;;;;;;3.47;2.05;;;15.50;99.90;;;;;;5031825;28;20541;-65
2023/07/14 02:14:24;;;;;;;2.58;1.88;;;15.50;99.90;;;;;;5032275;28;20026;-65
2023/07/14 02:16:51;;;;;;;3.45;1.83;;;15.50;99.90;;;;;;5032102;28;20053;-65
2023/07/14 02:19:22;;;;;;;3.78;2.25;;;15.50;99.90;;;;;;5032150;28;20368;-65
2023/07/14 02:21:49;;;;;;;5.95;2.28;;;15.40;99.90;;;;;;5032164;28;20475;-66
2023/07/14 02:24:21;;;;;;;3.22;1.77;;;15.30;99.90;;;;;;5032643;28;20100;-65
2023/07/14 02:27:08;;;;;;;7.10;2.03;;;15.20;99.90;;;;;;5032223;28;20386;-62
2023/07/14 02:29:34;;;;;;;13.27;2.88;;;15.20;99.90;;;;;;5032057;28;20025;-66
2023/07/14 02:32:22;;;;;;;4.50;1.65;;;15.10;99.90;;;;;;5031976;28;20044;-66
2023/07/14 02:34:58;;;;;;;6.80;2.08;;;15.00;99.90;;;;;;5014203;28;20028;-66
2023/07/14 02:38:06;;;;;;;5.75;2.30;;;14.90;99.90;;;;;;5031796;28;20071;-65
2023/07/14 02:40:53;;;;;;;4.95;2.53;;;14.70;99.90;;;;;;5031815;28;20057;-65
2023/07/14 02:43:22;;;;;;;10.52;2.13;;;14.70;99.90;;;;;;5031956;28;20034;-65
2023/07/14 02:46:15;;;;;;;6.20;2.40;;;14.70;99.90;;;;;;5031712;28;20021;-65
2023/07/14 02:48:43;;;;;;;7.05;2.40;;;14.60;99.90;;;;;;5031697;28;20152;-66
2023/07/14 02:51:10;;;;;;;8.68;2.03;;;14.60;99.90;;;;;;5031571;28;20029;-67
2023/07/14 02:53:36;;;;;;;4.20;1.98;;;14.50;99.90;;;;;;5031681;28;20549;-66
2023/07/14 02:56:02;;;;;;;4.57;2.58;;;14.40;99.90;;;;;;5031625;28;20030;-65
2023/07/14 02:58:27;;;;;;;4.65;2.22;;;14.40;99.90;;;;;;5031648;28;20448;-65
2023/07/14 03:00:53;;;;;;;5.25;2.22;;;14.40;99.90;;;;;;5031672;28;20092;-65
2023/07/14 03:03:19;;;;;;;3.55;2.20;;;14.40;99.90;;;;;;5031741;28;20479;-65
2023/07/14 03:05:45;;;;;;;7.82;2.95;;;14.40;99.90;;;;;;5031546;28;20021;-64
2023/07/14 03:08:16;;;;;;;6.03;2.20;;;14.30;99.90;;;;;;5013776;28;20079;-65
2023/07/14 03:10:44;;;;;;;7.35;2.42;;;14.30;99.90;;;;;;5031453;28;20022;-65
2023/07/14 03:13:10;;;;;;;6.72;2.63;;;14.20;99.90;;;;;;5031609;28;20052;-65
2023/07/14 03:15:35;;;;;;;4.88;2.63;;;14.10;99.90;;;;;;5031456;28;20034;-65
2023/07/14 03:18:01;;;;;;;4.40;2.25;;;14.10;99.90;;;;;;5031248;28;20415;-65
2023/07/14 03:20:26;;;;;;;5.68;2.20;;;14.10;99.90;;;;;;5031411;28;20021;-64
2023/07/14 03:22:52;;;;;;;9.13;2.25;;;14.00;99.90;;;;;;5017573;28;20445;-67
2023/07/14 03:25:18;;;;;;;4.78;2.28;;;14.00;99.90;;;;;;5017601;28;20025;-65
2023/07/14 03:27:45;;;;;;;5.95;2.55;;;13.90;99.90;;;;;;5035230;28;20030;-65
2023/07/14 03:30:12;;;;;;;3.90;2.28;;;13.90;99.90;;;;;;5035432;28;20406;-66
2023/07/14 03:32:37;;;;;;;6.72;2.85;;;13.90;99.90;;;;;;5035370;28;20033;-65
2023/07/14 03:35:03;;;;;;;6.18;2.15;;;13.90;99.90;;;;;;5035146;28;20038;-65
2023/07/14 03:37:29;;;;;;;5.15;1.98;;;13.80;99.90;;;;;;5034956;28;20041;-65
2023/07/14 03:39:54;;;;;;;7.07;2.60;;;13.80;99.90;;;;;;5035031;28;20030;-65
2023/07/14 03:42:20;;;;;;;8.52;2.85;;;13.80;99.90;;;;;;5035189;28;20026;-65
2023/07/14 03:44:46;;;;;;;5.68;2.35;;;13.80;99.90;;;;;;5034072;28;20025;-66
2023/07/14 03:47:11;;;;;;;10.05;2.50;;;13.80;99.90;;;;;;5034840;28;20470;-65
2023/07/14 03:49:37;;;;;;;7.65;2.75;;;13.80;99.90;;;;;;5034889;28;20029;-65
2023/07/14 03:52:03;;;;;;;5.70;2.38;;;13.90;99.90;;;;;;5034995;28;20075;-65
2023/07/14 03:54:30;;;;;;;3.75;2.55;;;13.90;99.90;;;;;;5034851;28;20550;-65
2023/07/14 03:56:58;;;;;;;5.47;2.35;;;13.90;99.90;;;;;;5034675;28;20029;-66
2023/07/14 03:59:23;;;;;;;4.22;2.20;;;13.90;99.90;;;;;;5034667;28;20121;-66
2023/07/14 04:01:49;;;;;;;5.32;2.40;;;13.90;99.90;;;;;;5034725;28;20445;-65
2023/07/14 04:04:15;;;;;;;4.93;2.38;;;13.90;99.90;;;;;;5034872;28;20441;-66
2023/07/14 04:06:41;;;;;;;4.40;3.03;;;13.90;99.90;;;;;;5035060;28;20433;-65
2023/07/14 04:09:07;;;;;;;7.95;2.80;;;13.90;99.90;;;;;;5034506;28;20026;-66
2023/07/14 04:11:36;;;;;;;6.20;2.72;;;13.90;99.90;;;;;;5034621;28;20395;-65
2023/07/14 04:14:07;;;;;;;5.28;2.17;;;14.00;99.90;;;;;;5034570;28;20057;-66
2023/07/14 04:16:33;;;;;;;4.25;2.17;;;14.10;99.90;;;;;;5034517;28;20104;-67
2023/07/14 04:18:58;;;;;;;7.63;2.22;;;14.20;99.90;;;;;;5034160;28;20017;-65
2023/07/14 04:21:24;;;;;;;7.10;2.00;;;14.20;99.90;;;;;;5034387;28;20021;-65
2023/07/14 04:23:54;;;;;;;6.00;2.53;;;14.30;99.90;;;;;;5034533;28;20017;-65
2023/07/14 04:26:20;;;;;;;8.05;2.88;;;14.40;99.90;;;;;;5034537;28;20029;-65
2023/07/14 04:28:46;;;;;;;13.68;2.22;;;14.50;99.90;;;;;;5034153;28;20022;-66
2023/07/14 04:31:11;;;;;;;6.82;1.92;;;14.60;99.90;;;;;;5034041;28;20044;-67
2023/07/14 04:33:37;;;;;;;6.53;2.40;;;14.70;99.90;;;;;;5033411;28;20029;-66
2023/07/14 04:36:04;;;;;;;6.50;2.70;;;14.80;99.90;;;;;;5034055;28;20029;-66
2023/07/14 04:38:30;;;;;;;4.88;2.63;;;15.00;99.90;;;;;;5034134;28;20021;-65
2023/07/14 04:40:55;;;;;;;6.28;2.17;;;15.40;99.90;;;;;;5033972;28;20379;-66
2023/07/14 04:43:21;;;;;;;4.43;2.30;;;16.40;99.90;;;;;;5034045;28;20034;-67
2023/07/14 04:45:49;;;;;;;6.15;2.78;;;17.50;99.90;;;;;;5033889;28;20483;-65
2023/07/14 04:48:17;;;;;;;5.68;2.05;;;18.60;99.90;;;;;;5034331;28;20029;-66
2023/07/14 04:50:47;;;;;;;4.70;2.00;;;19.60;99.90;;;;;;5033886;28;20383;-66
2023/07/14 04:53:14;;;;;;;4.20;1.98;;;20.30;99.90;;;;;;5033782;28;20029;-66
2023/07/14 04:55:44;;;;;;;5.97;2.33;;;20.70;99.90;;;;;;5033796;28;20022;-67
2023/07/14 04:58:12;;;;;;;3.65;1.52;;;21.20;99.90;;;;;;5033509;28;20028;-65
2023/07/14 05:00:38;;;;;;;5.95;1.88;;;22.50;98.00;;;;;;5033605;28;20025;-65
2023/07/14 05:03:05;;;;;;;2.65;1.50;;;22.60;96.80;;;;;;5033834;28;20032;-65
2023/07/14 05:05:31;;;;;;;4.13;1.45;;;22.80;95.30;;;;;;5033593;28;20025;-65
2023/07/14 05:07:57;;;;;;;2.97;1.40;;;23.20;94.50;;;;;;5033336;28;20026;-65
2023/07/14 05:10:25;;;;;;;5.35;1.33;;;23.60;93.00;;;;;;5033467;28;20026;-65
2023/07/14 05:12:55;;;;;;;5.53;1.20;;;23.50;93.10;;;;;;5033546;28;20053;-65
2023/07/14 05:15:22;;;;;;;6.15;1.80;;;24.00;92.30;;;;;;5033277;28;20029;-64
2023/07/14 05:17:48;;;;;;;11.32;1.83;;;24.10;91.20;;;;;;5033204;28;20026;-64
2023/07/14 05:20:16;;;;;;;2.55;1.35;;;24.00;91.50;;;;;;5033283;28;20432;-64
2023/07/14 05:22:44;;;;;;;3.33;1.52;;;24.00;91.30;;;;;;5033230;28;20422;-65
2023/07/14 05:25:11;;;;;;;2.03;1.00;;;24.30;91.20;;;;;;5033202;28;20387;-64
2023/07/14 05:27:38;;;;;;;6.50;1.50;;;24.50;90.40;;;;;;5032941;28;20029;-64
2023/07/14 05:30:05;;;;;;;4.85;1.55;;;24.70;90.10;;;;;;5032987;28;20052;-65
2023/07/14 05:32:32;;;;;;;3.13;1.25;;;24.90;90.10;;;;;;5033156;28;20433;-64
2023/07/14 05:34:57;;;;;;;5.68;1.50;;;25.10;90.00;;;;;;5033035;28;20091;-65
2023/07/14 05:37:23;;;;;;;4.75;1.40;;;25.40;90.00;;;;;;5032741;28;20029;-64
2023/07/14 05:39:50;;;;;;;5.13;1.40;;;25.60;85.00;;;;;;5032925;28;20040;-64
2023/07/14 05:42:15;;;;;;;5.95;1.80;;;26.40;86.30;;;;;;5032861;28;20025;-66
2023/07/14 05:44:41;;;;;;;4.65;1.30;;;27.20;82.30;;;;;;5031828;28;20035;-65
2023/07/14 05:47:07;;;;;;;8.27;1.58;;;26.90;81.90;;;;;;5032644;28;20100;-65
2023/07/14 05:49:33;;;;;;;3.13;1.10;;;26.60;82.40;;;;;;5032765;28;20030;-65
2023/07/14 05:51:59;;;;;;;6.13;1.73;;;27.20;81.20;;;;;;5032580;28;20021;-65
2023/07/14 05:54:24;;;;;;;7.35;1.73;;;26.80;80.80;;;;;;5032767;28;20036;-65
2023/07/14 05:56:51;;;;;;;4.50;1.42;;;27.60;80.70;;;;;;5032378;28;20144;-66
2023/07/14 05:59:17;;;;;;;2.10;1.02;;;27.30;79.50;;;;;;5032457;28;20037;-65
2023/07/14 06:01:45;;;;;;;5.07;1.27;;;27.70;79.40;;;;;;5014685;28;20084;-65
2023/07/14 06:04:11;;;;;;;4.72;1.60;;;28.30;77.30;;;;;;5032529;28;20067;-65
2023/07/14 06:06:37;;;;;;;2.20;1.23;;;28.60;75.50;;;;;;5032325;28;20029;-65
2023/07/14 06:09:03;;;;;;;2.78;1.38;;;28.70;74.60;;;;;;5032251;28;20068;-65
2023/07/14 06:11:28;;;;;;;3.78;1.40;;;28.50;76.00;;;;;;5032156;28;20040;-64
2023/07/14 06:13:56;;;;;;;3.72;1.80;;;28.40;74.50;;;;;;5032265;28;20021;-65
2023/07/14 06:16:21;;;;;;;4.53;1.38;;;28.20;76.00;;;;;;5032197;28;20101;-64
2023/07/14 06:18:48;;;;;;;3.63;1.38;;;28.40;75.40;;;;;;5032029;28;20128;-65
2023/07/14 06:21:13;;;;;;;2.03;1.10;;;29.30;74.80;;;;;;5032115;28;20021;-64
2023/07/14 06:23:39;;;;;;;3.00;1.90;;;29.80;72.90;;;;;;5032750;28;20025;-65
2023/07/14 06:26:04;;;;;;;4.88;1.65;;;29.10;71.90;;;;;;5031912;28;20068;-64
2023/07/14 06:28:30;;;;;;;6.22;1.48;;;29.40;74.10;;;;;;5032062;28;20025;-65
2023/07/14 06:30:57;;;;;;;3.00;1.42;;;30.10;72.10;;;;;;5031857;28;20029;-65
2023/07/14 06:33:24;;;;;;;3.83;1.30;;;30.50;71.30;;;;;;5032073;28;20021;-65
2023/07/14 06:35:50;;;;;;;3.70;1.70;;;31.60;69.40;;;;;;5031770;28;20375;-66
2023/07/14 06:38:15;;;;;;;5.75;1.65;;;30.80;69.20;;;;;;5031733;28;20017;-66
2023/07/14 06:40:41;;;;;;;6.10;1.73;;;30.60;69.70;;;;;;5031724;28;20100;-65
2023/07/14 06:43:09;;;;;;;2.28;1.33;;;31.30;68.10;;;;;;5031919;28;20022;-65
2023/07/14 06:45:35;;;;;;;3.33;1.40;;;30.30;68.40;;;;;;5031837;28;20026;-65
2023/07/14 06:48:01;;;;;;;3.17;1.40;;;30.50;69.80;;;;;;5013882;28;20076;-65
2023/07/14 06:50:26;;;;;;;8.60;1.40;;;30.20;71.40;;;;;;5031692;28;20426;-65
2023/07/14 06:52:52;;;;;;;6.45;1.65;;;30.20;70.80;;;;;;5031728;28;20064;-65
2023/07/14 06:55:18;;;;;;;2.70;1.20;;;30.80;70.10;;;;;;5031694;28;20503;-64
2023/07/14 06:57:44;;;;;;;5.35;1.65;;;31.30;69.00;;;;;;5031169;28;20035;-64
2023/07/14 07:00:12;;;;;;;4.13;1.27;;;30.90;68.50;;;;;;5031546;28;20479;-64
2023/07/14 07:02:41;;;;;;;2.38;1.20;;;29.90;69.80;;;;;;5031595;28;20018;-64
2023/07/14 07:05:08;;;;;;;4.47;2.20;;;28.80;70.80;;;;;;5031458;28;20049;-65
2023/07/14 07:07:34;;;;;;;3.55;1.30;;;27.90;74.10;;;;;;5031332;28;20033;-64
2023/07/14 07:09:59;;;;;;;2.67;1.63;;;28.90;73.20;;;;;;5031495;28;20072;-65
2023/07/14 07:12:25;;;;;;;6.13;1.50;;;29.60;71.50;;;;;;5031582;28;20045;-65
2023/07/14 07:14:51;;;;;;;3.90;1.70;;;29.40;72.10;;;;;;5031496;28;20029;-65
2023/07/14 07:17:16;;;;;;;8.25;1.73;;;30.90;69.20;;;;;;5031330;28;20033;-64
2023/07/14 07:19:42;;;;;;;4.75;1.45;;;31.50;68.10;;;;;;5031431;28;20069;-64
2023/07/14 07:22:08;;;;;;;3.00;1.15;;;31.10;67.60;;;;;;5031312;28;20048;-64
2023/07/14 07:24:33;;;;;;;4.85;1.90;;;30.70;68.80;;;;;;5031437;28;20025;-64
2023/07/14 07:27:00;;;;;;;3.80;1.38;;;30.90;67.90;;;;;;5031249;28;20026;-65
2023/07/14 07:29:25;;;;;;;2.38;1.48;;;31.90;67.40;;;;;;5031284;28;20037;-66
2023/07/14 07:31:51;;;;;;;4.40;1.52;;;32.70;65.60;;;;;;5031698;28;20426;-65
2023/07/14 07:34:17;;;;;;;2.40;1.30;;;32.50;66.10;;;;;;5013651;28;20076;-65
2023/07/14 07:36:42;;;;;;;2.65;1.13;;;33.00;65.60;;;;;;5031162;28;20113;-64
2023/07/14 07:39:08;;;;;;;3.85;1.52;;;33.10;65.10;;;;;;5031056;28;20048;-65
2023/07/14 07:41:33;;;;;;;4.80;1.45;;;33.00;63.80;;;;;;5031357;28;20026;-65
2023/07/14 07:44:01;;;;;;;3.40;1.23;;;32.80;63.30;;;;;;5031201;28;20466;-64
2023/07/14 07:46:27;;;;;;;3.72;1.42;;;32.70;64.50;;;;;;5031183;28;20026;-66
2023/07/14 07:48:53;;;;;;;3.33;1.65;;;32.80;64.40;;;;;;5031009;28;20497;-65
2023/07/14 07:51:19;;;;;;;3.40;1.48;;;32.00;64.40;;;;;;5031082;28;20029;-65
2023/07/14 07:53:45;;;;;;;3.65;1.45;;;32.40;63.90;;;;;;5031128;28;20104;-64
2023/07/14 07:56:11;;;;;;;3.35;1.38;;;32.30;65.90;;;;;;5031232;28;20447;-65
2023/07/14 07:58:36;;;;;;;4.22;1.80;;;32.00;64.30;;;;;;5031128;28;20102;-65
2023/07/14 08:01:04;;;;;;;3.50;1.52;;;31.70;65.00;;;;;;5031091;28;20475;-64
2023/07/14 08:03:31;;;;;;;6.85;1.52;;;30.60;66.60;;;;;;5031082;28;20052;-65
2023/07/14 08:06:01;;;;;;;3.90;1.27;;;30.60;67.80;;;;;;5030884;28;20017;-65
2023/07/14 08:08:27;;;;;;;3.95;1.70;;;31.00;68.40;;;;;;5014362;28;20112;-65
2023/07/14 08:10:53;;;;;;;2.13;0.95;;;30.90;66.20;;;;;;5034520;28;20080;-65
2023/07/14 08:13:19;;;;;;;2.47;1.10;;;31.60;67.40;;;;;;5034866;28;20096;-65
2023/07/14 08:15:44;;;;;;;3.38;1.35;;;31.70;64.30;;;;;;5034600;28;20110;-65
2023/07/14 08:18:10;;;;;;;3.60;1.33;;;30.80;65.00;;;;;;5034135;28;20022;-65
2023/07/14 08:20:40;;;;;;;4.60;1.48;;;30.30;68.00;;;;;;5034362;28;20026;-64
2023/07/14 08:23:10;;;;;;;2.25;1.33;;;30.50;66.30;;;;;;5034360;28;20017;-64
2023/07/14 08:25:37;;;;;;;2.67;1.52;;;30.60;66.40;;;;;;5034322;28;20021;-65
2023/07/14 08:28:04;;;;;;;3.70;1.02;;;30.40;66.20;;;;;;5034056;28;20018;-65
2023/07/14 08:30:30;;;;;;;2.22;1.60;;;29.80;67.30;;;;;;5034114;28;20483;-64
2023/07/14 08:32:56;;;;;;;3.70;1.80;;;30.70;66.70;;;;;;5034195;28;20021;-65
2023/07/14 08:35:22;;;;;;;4.43;1.13;;;30.10;67.10;;;;;;5034150;28;20430;-65
2023/07/14 08:37:48;;;;;;;3.67;1.23;;;30.50;68.10;;;;;;5033959;28;20026;-65
2023/07/14 08:40:20;;;;;;;3.08;1.10;;;30.70;67.00;;;;;;5033956;28;20032;-65
2023/07/14 08:43:13;;;;;;;2.63;1.20;;;30.30;69.20;;;;;;5034093;28;20022;-65
2023/07/14 08:45:54;;;;;;;5.25;1.70;;;29.70;67.20;;;;;;5033874;28;20103;-64
2023/07/14 08:48:45;;;;;;;1.95;1.05;;;30.00;67.60;;;;;;5032490;28;20021;-65
2023/07/14 08:51:18;;;;;;;2.92;1.35;;;31.00;66.00;;;;;;5033858;28;20017;-65
2023/07/14 08:53:58;;;;;;;8.43;1.33;;;31.60;64.80;;;;;;5033967;28;20033;-64
2023/07/14 08:56:25;;;;;;;3.22;0.98;;;31.20;66.20;;;;;;5033760;28;20104;-65
2023/07/14 08:58:52;;;;;;;3.03;1.38;;;30.50;64.70;;;;;;5033537;28;20057;-65
2023/07/14 09:01:34;;;;;;;2.92;1.10;;;29.60;66.50;;;;;;5033586;28;20021;-65
2023/07/14 09:04:11;;;;;;;4.90;1.67;;;29.30;67.40;;;;;;5033644;28;20041;-65
2023/07/14 09:06:38;;;;;;;3.00;1.30;;;28.50;68.70;;;;;;5033543;28;20025;-65
2023/07/14 09:09:19;;;;;;;4.10;1.35;;;27.80;69.70;;;;;;5033335;28;20018;-65
2023/07/14 09:12:22;;;;;;;2.22;1.08;;;27.50;70.70;;;;;;5033454;28;20029;-65
2023/07/14 09:14:50;;;;;;;3.85;1.75;;;28.10;71.00;;;;;;5033356;28;20028;-64
2023/07/14 09:17:27;;;;;;;4.47;1.30;;;27.90;70.00;;;;;;5033131;28;20075;-64
2023/07/14 09:20:31;;;;;;;3.90;1.33;;;27.90;71.10;;;;;;5033043;28;20083;-64
2023/07/14 09:23:15;;;;;;;;;;;28.30;70.50;;;;;;5033667;28;20387;-64
2023/07/14 09:25:50;;;;;;;5.10;1.20;;;28.20;71.10;;;;;;5033225;28;20358;-64
2023/07/14 09:28:22;;;;;;;4.63;1.50;;;28.40;70.80;;;;;;5033066;28;20026;-65
2023/07/14 09:30:50;;;;;;;2.08;1.17;;;28.10;69.30;;;;;;5033106;28;20041;-64
2023/07/14 09:33:20;;;;;;;2.72;1.40;;;28.40;69.50;;;;;;5033040;28;20022;-64
2023/07/14 09:35:48;;;;;;;3.10;1.40;;;28.30;70.30;;;;;;5033018;28;20035;-64
2023/07/14 09:38:24;;;;;;;3.97;1.60;;;28.40;68.70;;;;;;5032755;28;20032;-65
2023/07/14 09:40:56;;;;;;;8.32;1.35;;;28.50;70.00;;;;;;5032949;28;20021;-64
2023/07/14 09:43:21;;;;;;;3.47;1.23;;;29.40;68.30;;;;;;5033407;28;20083;-65
2023/07/14 09:45:53;;;;;;;5.78;1.20;;;29.80;68.50;;;;;;5032850;28;20410;-64
2023/07/14 09:48:23;;;;;;;5.55;1.85;;;30.90;63.50;;;;;;5032700;28;20082;-64
2023/07/14 09:51:02;;;;;;;2.92;1.30;;;31.20;64.70;;;;;;5032753;28;20017;-64
2023/07/14 09:53:30;;;;;;;2.15;1.10;;;30.50;65.00;;;;;;5032663;28;20399;-65
2023/07/14 09:56:03;;;;;;;3.08;1.30;;;30.60;65.90;;;;;;5032566;28;20037;-65
2023/07/14 09:58:32;;;;;;;4.03;1.33;;;30.80;64.10;;;;;;5032364;28;20021;-64
2023/07/14 10:01:02;;;;;;;3.65;1.40;;;30.80;61.50;;;;;;5032513;28;20022;-65
2023/07/14 10:03:47;;;;;;;5.78;1.40;;;30.80;62.80;;;;;;5032520;28;20104;-65
2023/07/14 10:06:26;;;;;;;2.75;1.25;;;30.40;61.90;;;;;;5032663;28;20437;-65
2023/07/14 10:08:58;;;;;;;6.68;1.63;;;30.40;63.00;;;;;;5014579;28;20678;-64
2023/07/14 10:11:25;;;;;;;2.47;1.17;;;30.30;64.00;;;;;;5032305;28;20033;-64
2023/07/14 10:13:59;;;;;;;3.08;1.50;;;30.80;64.50;;;;;;5032395;28;20025;-64
2023/07/14 10:16:32;;;;;;;5.30;2.22;;;31.60;61.10;;;;;;5032209;28;20501;-64
2023/07/14 10:18:57;;;;;;;;;;;31.60;60.00;;;;;;5032550;28;20426;-65
2023/07/14 10:21:29;;;;;;;3.78;1.67;;;31.10;61.80;;;;;;5032527;28;19912;-65
2023/07/14 10:24:05;;;;;;;2.85;1.50;;;30.60;61.10;;;;;;5032246;28;20056;-64
2023/07/14 10:26:38;;;;;;;2.67;1.30;;;31.10;60.40;;;;;;5032136;28;20075;-64
2023/07/14 10:29:13;;;;;;;4.45;1.23;;;31.20;59.80;;;;;;5031944;28;20022;-64
2023/07/14 10:31:59;;;;;;;2.15;1.27;;;30.60;61.10;;;;;;5031273;28;20414;-64
2023/07/14 10:34:38;;;;;;;2.60;1.40;;;30.50;62.60;;;;;;5014316;28;20032;-65
2023/07/14 10:37:16;;;;;;;3.13;1.70;;;30.70;60.60;;;;;;5031892;28;20091;-65
2023/07/14 10:39:48;;;;;;;4.88;1.60;;;30.70;61.30;;;;;;5014247;28;20021;-65
2023/07/14 10:42:20;;;;;;;2.28;1.63;;;30.30;60.30;;;;;;5031642;28;20041;-65
2023/07/14 10:44:46;;;;;;;2.33;1.52;;;30.10;65.40;;;;;;5031884;28;20553;-65
2023/07/14 10:47:18;;;;;;;2.67;1.40;;;29.60;61.90;;;;;;5031562;28;20063;-65
2023/07/14 10:49:52;;;;;;;3.45;1.48;;;30.20;62.50;;;;;;5031881;28;20433;-65
2023/07/14 10:52:23;;;;;;;6.70;1.70;;;30.40;62.00;;;;;;5031840;28;20105;-64
2023/07/14 10:54:57;;;;;;;8.30;1.90;;;30.50;62.10;;;;;;5031679;28;20079;-65
2023/07/14 10:57:48;;;;;;;4.70;1.50;;;30.20;61.30;;;;;;5031454;28;20026;-65
2023/07/14 11:00:30;;;;;;;3.30;1.67;;;30.20;62.10;;;;;;5031458;28;20028;-64
2023/07/14 11:03:12;;;;;;;2.47;1.52;;;30.70;61.90;;;;;;5031703;28;20022;-66
2023/07/14 11:05:38;;;;;;;7.38;1.70;;;31.10;61.80;;;;;;5031658;28;20022;-64
2023/07/14 11:08:08;;;;;;;3.65;1.52;;;31.10;61.10;;;;;;5031414;28;20064;-64
2023/07/14 11:10:33;;;;;;;3.88;2.33;;;31.00;60.70;;;;;;5031809;28;20017;-64
2023/07/14 11:13:01;;;;;;;2.13;1.25;;;31.50;61.00;;;;;;5032041;28;20532;-65
2023/07/14 11:15:52;;;;;;;3.83;1.40;;;31.20;58.80;;;;;;5031386;28;20025;-64
2023/07/14 11:18:20;;;;;;;4.00;2.15;;;31.30;60.80;;;;;;5031918;28;20025;-65
2023/07/14 11:20:55;;;;;;;7.10;1.75;;;31.60;60.70;;;;;;5031444;28;20076;-64
2023/07/14 11:23:31;;;;;;;2.10;1.35;;;31.70;57.90;;;;;;5031523;28;20021;-64
2023/07/14 11:26:17;;;;;;;6.47;1.70;;;31.30;58.60;;;;;;5031323;28;20021;-64
2023/07/14 11:28:52;;;;;;;2.97;1.60;;;30.60;60.10;;;;;;5031590;28;20434;-64
2023/07/14 11:31:28;;;;;;;6.00;1.55;;;30.10;61.20;;;;;;5031214;28;20040;-64
2023/07/14 11:34:06;;;;;;;4.03;1.80;;;30.30;62.20;;;;;;5031430;28;20052;-64
2023/07/14 11:36:51;;;;;;;7.18;1.63;;;30.10;62.60;;;;;;5031175;28;20079;-64
2023/07/14 11:39:31;;;;;;;4.85;1.67;;;30.10;62.30;;;;;;5031255;28;20033;-64
2023/07/14 11:41:57;;;;;;;3.97;1.55;;;29.90;60.80;;;;;;5031329;28;20022;-64
2023/07/14 11:44:23;;;;;;;4.93;1.60;;;29.70;61.00;;;;;;5034013;28;20017;-63
2023/07/14 11:46:50;;;;;;;3.13;2.05;;;29.50;63.30;;;;;;5034877;28;20017;-62
2023/07/14 11:49:36;;;;;;;6.30;1.98;;;29.60;63.40;;;;;;5034991;28;20457;-64
2023/07/14 11:52:19;;;;;;;6.40;1.88;;;29.40;62.70;;;;;;5034910;28;20030;-64
2023/07/14 11:55:05;;;;;;;2.78;1.20;;;29.30;65.00;;;;;;5034881;28;20034;-64
2023/07/14 11:57:47;;;;;;;5.00;1.60;;;29.20;63.10;;;;;;5034699;28;20733;-65
2023/07/14 12:00:13;;;;;;;3.23;1.43;;;28.80;64.10;;;;;;5034757;28;20071;-64
2023/07/14 12:03:02;;;;;;;2.47;1.88;;;28.70;64.80;;;;;;5034773;28;20299;-64
2023/07/14 12:05:32;;;;;;;3.83;1.48;;;28.50;65.80;;;;;;5034984;28;20621;-64
2023/07/14 12:08:10;;;;;;;8.95;2.50;;;28.60;65.00;;;;;;5034736;28;20029;-64
2023/07/14 12:10:39;;;;;;;3.72;1.60;;;28.30;63.70;;;;;;5016921;28;20022;-64
2023/07/14 12:13:22;;;;;;;7.28;2.17;;;28.10;64.00;;;;;;5034614;28;20025;-63
2023/07/14 12:16:15;;;;;;;3.85;1.35;;;28.00;63.90;;;;;;5034440;28;20037;-62
2023/07/14 12:19:03;;;;;;;6.05;1.40;;;28.20;66.90;;;;;;5034359;28;20021;-64
2023/07/14 12:21:45;;;;;;;10.70;2.05;;;28.30;64.40;;;;;;5034454;28;20430;-64
2023/07/14 12:24:17;;;;;;;5.22;1.67;;;28.20;63.30;;;;;;5034505;28;20026;-64
2023/07/14 12:26:52;;;;;;;2.97;1.40;;;28.20;63.10;;;;;;5034307;28;20078;-64
2023/07/14 12:29:19;;;;;;;4.93;1.50;;;28.00;63.40;;;;;;5034191;28;20104;-65
2023/07/14 12:31:51;;;;;;;6.47;1.38;;;27.70;64.30;;;;;;5034220;28;20401;-64
2023/07/14 12:34:18;;;;;;;3.05;1.23;;;27.50;64.60;;;;;;5034225;28;20033;-64
2023/07/14 12:36:45;;;;;;;6.72;1.60;;;27.60;65.30;;;;;;5034010;28;20391;-63
2023/07/14 12:39:10;;;;;;;3.30;1.55;;;27.70;65.00;;;;;;5033923;28;20056;-64
2023/07/14 12:41:40;;;;;;;3.83;1.83;;;27.60;65.20;;;;;;5034132;28;20041;-65
2023/07/14 12:44:18;;;;;;;5.93;1.73;;;27.90;65.00;;;;;;5034160;28;20025;-64
2023/07/14 12:46:44;;;;;;;4.03;1.40;;;28.10;63.40;;;;;;5033932;28;20039;-64
2023/07/14 12:49:38;;;;;;;4.35;1.42;;;28.40;64.30;;;;;;5033742;28;20022;-64
2023/07/14 12:52:17;;;;;;;4.97;1.65;;;28.40;62.40;;;;;;5033975;28;20128;-64
2023/07/14 12:54:44;;;;;;;2.25;1.48;;;28.10;63.40;;;;;;5033459;28;20018;-64
2023/07/14 12:57:13;;;;;;;8.85;1.73;;;28.00;62.40;;;;;;5033480;28;20077;-64
2023/07/14 12:59:39;;;;;;;2.72;1.38;;;28.10;61.60;;;;;;5033446;28;20553;-64
2023/07/14 13:02:11;;;;;;;3.50;1.20;;;28.40;62.00;;;;;;5033723;28;20029;-65
2023/07/14 13:04:37;;;;;;;3.53;0.97;;;28.40;61.70;;;;;;5033726;28;20024;-65